sensor_id;sensor_type;location;lat;lon;timestamp;P1;durP1;ratioP1;P2;durP2;ratioP2
65636;SDS011;52327;42.622;23.316;2023-03-16T00:02:03;0.20;;;0.20;;
65636;SDS011;52327;42.622;23.316;2023-03-16T00:04:29;0.10;;;0.10;;
65636;SDS011;52327;42.622;23.316;2023-03-16T00:06:55;0.30;;;0.30;;
65636;SDS011;52327;42.622;23.316;2023-03-16T00:09:20;0.20;;;0.20;;
65636;SDS011;52327;42.622;23.316;2023-03-16T00:11:46;0.25;;;0.20;;
65636;SDS011;52327;42.622;23.316;2023-03-16T00:14:11;0.22;;;0.22;;
65636;SDS011;52327;42.622;23.316;2023-03-16T00:16:37;0.20;;;0.20;;
65636;SDS011;52327;42.622;23.316;2023-03-16T00:19:03;0.22;;;0.22;;
65636;SDS011;52327;42.622;23.316;2023-03-16T00:21:29;0.70;;;0.43;;
65636;SDS011;52327;42.622;23.316;2023-03-16T00:23:56;0.77;;;0.45;;
65636;SDS011;52327;42.622;23.316;2023-03-16T00:26:22;0.43;;;0.28;;
65636;SDS011;52327;42.622;23.316;2023-03-16T00:28:47;0.75;;;0.55;;
65636;SDS011;52327;42.622;23.316;2023-03-16T00:31:13;1.17;;;0.32;;
65636;SDS011;52327;42.622;23.316;2023-03-16T00:33:39;0.20;;;0.20;;
65636;SDS011;52327;42.622;23.316;2023-03-16T00:36:07;0.75;;;0.38;;
65636;SDS011;52327;42.622;23.316;2023-03-16T00:38:36;0.13;;;0.13;;
65636;SDS011;52327;42.622;23.316;2023-03-16T00:41:03;1.75;;;0.93;;
65636;SDS011;52327;42.622;23.316;2023-03-16T00:43:31;0.20;;;0.20;;
65636;SDS011;52327;42.622;23.316;2023-03-16T00:46:05;0.30;;;0.30;;
65636;SDS011;52327;42.622;23.316;2023-03-16T00:48:33;0.38;;;0.28;;
65636;SDS011;52327;42.622;23.316;2023-03-16T00:51:00;0.22;;;0.22;;
65636;SDS011;52327;42.622;23.316;2023-03-16T00:53:26;0.10;;;0.10;;
65636;SDS011;52327;42.622;23.316;2023-03-16T00:55:52;0.10;;;0.10;;
65636;SDS011;52327;42.622;23.316;2023-03-16T00:58:18;0.13;;;0.13;;
65636;SDS011;52327;42.622;23.316;2023-03-16T01:00:44;0.15;;;0.15;;
65636;SDS011;52327;42.622;23.316;2023-03-16T01:03:10;0.20;;;0.20;;
65636;SDS011;52327;42.622;23.316;2023-03-16T01:05:39;0.32;;;0.32;;
65636;SDS011;52327;42.622;23.316;2023-03-16T01:08:06;0.60;;;0.47;;
65636;SDS011;52327;42.622;23.316;2023-03-16T01:10:33;0.40;;;0.40;;
65636;SDS011;52327;42.622;23.316;2023-03-16T01:13:01;0.22;;;0.22;;
65636;SDS011;52327;42.622;23.316;2023-03-16T01:15:28;0.10;;;0.10;;
65636;SDS011;52327;42.622;23.316;2023-03-16T01:17:54;0.47;;;0.47;;
65636;SDS011;52327;42.622;23.316;2023-03-16T01:20:20;0.17;;;0.17;;
65636;SDS011;52327;42.622;23.316;2023-03-16T01:22:46;0.10;;;0.10;;
65636;SDS011;52327;42.622;23.316;2023-03-16T01:25:11;0.20;;;0.20;;
65636;SDS011;52327;42.622;23.316;2023-03-16T01:27:37;0.20;;;0.20;;
65636;SDS011;52327;42.622;23.316;2023-03-16T01:30:03;1.65;;;0.20;;
65636;SDS011;52327;42.622;23.316;2023-03-16T01:32:30;0.10;;;0.10;;
65636;SDS011;52327;42.622;23.316;2023-03-16T01:34:55;0.40;;;0.40;;
65636;SDS011;52327;42.622;23.316;2023-03-16T01:37:21;0.20;;;0.20;;
65636;SDS011;52327;42.622;23.316;2023-03-16T01:39:47;0.30;;;0.30;;
65636;SDS011;52327;42.622;23.316;2023-03-16T01:42:13;0.35;;;0.35;;
65636;SDS011;52327;42.622;23.316;2023-03-16T01:44:49;0.10;;;0.10;;
65636;SDS011;52327;42.622;23.316;2023-03-16T01:47:25;0.20;;;0.20;;
65636;SDS011;52327;42.622;23.316;2023-03-16T01:49:52;0.40;;;0.40;;
65636;SDS011;52327;42.622;23.316;2023-03-16T01:52:21;0.40;;;0.40;;
65636;SDS011;52327;42.622;23.316;2023-03-16T01:54:57;0.40;;;0.30;;
65636;SDS011;52327;42.622;23.316;2023-03-16T01:57:32;0.10;;;0.10;;
65636;SDS011;52327;42.622;23.316;2023-03-16T02:00:03;0.20;;;0.20;;
65636;SDS011;52327;42.622;23.316;2023-03-16T02:02:50;0.20;;;0.20;;
65636;SDS011;52327;42.622;23.316;2023-03-16T02:05:22;1.17;;;0.25;;
65636;SDS011;52327;42.622;23.316;2023-03-16T02:07:50;0.30;;;0.30;;
65636;SDS011;52327;42.622;23.316;2023-03-16T02:10:22;0.20;;;0.20;;
65636;SDS011;52327;42.622;23.316;2023-03-16T02:12:50;0.28;;;0.28;;
65636;SDS011;52327;42.622;23.316;2023-03-16T02:15:17;0.17;;;0.17;;
65636;SDS011;52327;42.622;23.316;2023-03-16T02:17:43;0.13;;;0.13;;
65636;SDS011;52327;42.622;23.316;2023-03-16T02:22:47;0.10;;;0.10;;
65636;SDS011;52327;42.622;23.316;2023-03-16T02:25:15;0.20;;;0.20;;
65636;SDS011;52327;42.622;23.316;2023-03-16T02:30:16;0.10;;;0.10;;
65636;SDS011;52327;42.622;23.316;2023-03-16T02:32:43;0.63;;;0.40;;
65636;SDS011;52327;42.622;23.316;2023-03-16T02:35:11;0.10;;;0.10;;
65636;SDS011;52327;42.622;23.316;2023-03-16T02:37:37;0.65;;;0.65;;
65636;SDS011;52327;42.622;23.316;2023-03-16T02:40:20;0.20;;;0.20;;
65636;SDS011;52327;42.622;23.316;2023-03-16T02:42:59;0.38;;;0.38;;
65636;SDS011;52327;42.622;23.316;2023-03-16T02:45:28;0.52;;;0.38;;
65636;SDS011;52327;42.622;23.316;2023-03-16T02:48:00;0.20;;;0.20;;
65636;SDS011;52327;42.622;23.316;2023-03-16T02:50:29;0.20;;;0.20;;
65636;SDS011;52327;42.622;23.316;2023-03-16T02:52:55;0.20;;;0.20;;
65636;SDS011;52327;42.622;23.316;2023-03-16T02:55:20;0.10;;;0.10;;
65636;SDS011;52327;42.622;23.316;2023-03-16T02:57:46;0.20;;;0.20;;
65636;SDS011;52327;42.622;23.316;2023-03-16T03:00:12;0.20;;;0.20;;
65636;SDS011;52327;42.622;23.316;2023-03-16T03:02:43;0.20;;;0.20;;
65636;SDS011;52327;42.622;23.316;2023-03-16T03:05:09;0.28;;;0.28;;
65636;SDS011;52327;42.622;23.316;2023-03-16T03:07:36;0.10;;;0.10;;
65636;SDS011;52327;42.622;23.316;2023-03-16T03:10:03;0.10;;;0.10;;
65636;SDS011;52327;42.622;23.316;2023-03-16T03:12:30;0.10;;;0.10;;
65636;SDS011;52327;42.622;23.316;2023-03-16T03:14:59;0.30;;;0.30;;
65636;SDS011;52327;42.622;23.316;2023-03-16T03:17:24;0.20;;;0.20;;
65636;SDS011;52327;42.622;23.316;2023-03-16T03:19:57;1.13;;;1.13;;
65636;SDS011;52327;42.622;23.316;2023-03-16T03:24:50;0.15;;;0.15;;
65636;SDS011;52327;42.622;23.316;2023-03-16T03:27:16;0.40;;;0.40;;
65636;SDS011;52327;42.622;23.316;2023-03-16T03:29:41;0.20;;;0.20;;
65636;SDS011;52327;42.622;23.316;2023-03-16T03:32:08;0.10;;;0.10;;
65636;SDS011;52327;42.622;23.316;2023-03-16T03:34:34;0.10;;;0.10;;
65636;SDS011;52327;42.622;23.316;2023-03-16T03:36:59;0.10;;;0.10;;
65636;SDS011;52327;42.622;23.316;2023-03-16T03:39:25;0.15;;;0.15;;
65636;SDS011;52327;42.622;23.316;2023-03-16T03:41:50;0.10;;;0.10;;
65636;SDS011;52327;42.622;23.316;2023-03-16T03:44:22;0.40;;;0.30;;
65636;SDS011;52327;42.622;23.316;2023-03-16T03:46:48;0.20;;;0.20;;
65636;SDS011;52327;42.622;23.316;2023-03-16T03:49:15;1.65;;;0.30;;
65636;SDS011;52327;42.622;23.316;2023-03-16T03:51:42;0.20;;;0.20;;
65636;SDS011;52327;42.622;23.316;2023-03-16T03:54:08;0.20;;;0.20;;
65636;SDS011;52327;42.622;23.316;2023-03-16T03:56:33;0.10;;;0.10;;
65636;SDS011;52327;42.622;23.316;2023-03-16T03:58:59;0.22;;;0.22;;
65636;SDS011;52327;42.622;23.316;2023-03-16T04:01:24;0.20;;;0.20;;
65636;SDS011;52327;42.622;23.316;2023-03-16T04:03:49;0.28;;;0.28;;
65636;SDS011;52327;42.622;23.316;2023-03-16T04:06:15;0.43;;;0.43;;
65636;SDS011;52327;42.622;23.316;2023-03-16T04:08:41;0.20;;;0.20;;
65636;SDS011;52327;42.622;23.316;2023-03-16T04:11:07;0.50;;;0.50;;
65636;SDS011;52327;42.622;23.316;2023-03-16T04:13:32;0.15;;;0.15;;
65636;SDS011;52327;42.622;23.316;2023-03-16T04:15:58;0.20;;;0.20;;
65636;SDS011;52327;42.622;23.316;2023-03-16T04:18:26;0.38;;;0.20;;
65636;SDS011;52327;42.622;23.316;2023-03-16T04:20:52;1.00;;;0.57;;
65636;SDS011;52327;42.622;23.316;2023-03-16T04:23:18;0.22;;;0.22;;
65636;SDS011;52327;42.622;23.316;2023-03-16T04:25:44;0.10;;;0.10;;
65636;SDS011;52327;42.622;23.316;2023-03-16T04:28:10;1.02;;;0.30;;
65636;SDS011;52327;42.622;23.316;2023-03-16T04:30:36;0.70;;;0.30;;
65636;SDS011;52327;42.622;23.316;2023-03-16T04:33:01;0.90;;;0.65;;
65636;SDS011;52327;42.622;23.316;2023-03-16T04:35:27;0.55;;;0.35;;
65636;SDS011;52327;42.622;23.316;2023-03-16T04:37:52;0.80;;;0.80;;
65636;SDS011;52327;42.622;23.316;2023-03-16T04:40:19;0.10;;;0.10;;
65636;SDS011;52327;42.622;23.316;2023-03-16T04:42:45;1.08;;;0.52;;
65636;SDS011;52327;42.622;23.316;2023-03-16T04:45:12;0.20;;;0.20;;
65636;SDS011;52327;42.622;23.316;2023-03-16T04:47:38;0.52;;;0.38;;
65636;SDS011;52327;42.622;23.316;2023-03-16T04:50:04;0.30;;;0.22;;
65636;SDS011;52327;42.622;23.316;2023-03-16T04:52:30;2.70;;;0.88;;
65636;SDS011;52327;42.622;23.316;2023-03-16T04:54:56;0.10;;;0.10;;
65636;SDS011;52327;42.622;23.316;2023-03-16T04:57:22;0.20;;;0.20;;
65636;SDS011;52327;42.622;23.316;2023-03-16T04:59:47;0.50;;;0.50;;
65636;SDS011;52327;42.622;23.316;2023-03-16T05:02:12;0.20;;;0.20;;
65636;SDS011;52327;42.622;23.316;2023-03-16T05:04:38;0.20;;;0.20;;
65636;SDS011;52327;42.622;23.316;2023-03-16T05:07:03;0.10;;;0.10;;
65636;SDS011;52327;42.622;23.316;2023-03-16T05:09:29;0.38;;;0.38;;
65636;SDS011;52327;42.622;23.316;2023-03-16T05:11:55;0.85;;;0.77;;
65636;SDS011;52327;42.622;23.316;2023-03-16T05:14:20;0.28;;;0.28;;
65636;SDS011;52327;42.622;23.316;2023-03-16T05:16:45;0.43;;;0.40;;
65636;SDS011;52327;42.622;23.316;2023-03-16T05:19:11;0.30;;;0.30;;
65636;SDS011;52327;42.622;23.316;2023-03-16T05:21:36;0.20;;;0.20;;
65636;SDS011;52327;42.622;23.316;2023-03-16T05:24:06;0.35;;;0.35;;
65636;SDS011;52327;42.622;23.316;2023-03-16T05:26:32;0.32;;;0.30;;
65636;SDS011;52327;42.622;23.316;2023-03-16T05:28:58;0.15;;;0.15;;
65636;SDS011;52327;42.622;23.316;2023-03-16T05:31:24;0.38;;;0.38;;
65636;SDS011;52327;42.622;23.316;2023-03-16T05:33:56;0.30;;;0.30;;
65636;SDS011;52327;42.622;23.316;2023-03-16T05:36:22;0.30;;;0.30;;
65636;SDS011;52327;42.622;23.316;2023-03-16T05:38:48;0.65;;;0.47;;
65636;SDS011;52327;42.622;23.316;2023-03-16T05:41:14;0.20;;;0.20;;
65636;SDS011;52327;42.622;23.316;2023-03-16T05:43:42;0.38;;;0.38;;
65636;SDS011;52327;42.622;23.316;2023-03-16T05:46:08;0.55;;;0.55;;
65636;SDS011;52327;42.622;23.316;2023-03-16T05:48:33;1.25;;;0.98;;
65636;SDS011;52327;42.622;23.316;2023-03-16T05:50:59;0.40;;;0.40;;
65636;SDS011;52327;42.622;23.316;2023-03-16T05:53:25;0.10;;;0.10;;
65636;SDS011;52327;42.622;23.316;2023-03-16T05:55:52;0.30;;;0.30;;
65636;SDS011;52327;42.622;23.316;2023-03-16T05:58:18;0.52;;;0.30;;
65636;SDS011;52327;42.622;23.316;2023-03-16T06:00:44;0.57;;;0.47;;
65636;SDS011;52327;42.622;23.316;2023-03-16T06:03:09;1.00;;;0.30;;
65636;SDS011;52327;42.622;23.316;2023-03-16T06:05:34;0.17;;;0.17;;
65636;SDS011;52327;42.622;23.316;2023-03-16T06:08:00;0.20;;;0.20;;
65636;SDS011;52327;42.622;23.316;2023-03-16T06:10:26;0.75;;;0.40;;
65636;SDS011;52327;42.622;23.316;2023-03-16T06:12:52;0.47;;;0.43;;
65636;SDS011;52327;42.622;23.316;2023-03-16T06:15:17;0.85;;;0.38;;
65636;SDS011;52327;42.622;23.316;2023-03-16T06:17:43;0.20;;;0.20;;
65636;SDS011;52327;42.622;23.316;2023-03-16T06:20:09;0.30;;;0.30;;
65636;SDS011;52327;42.622;23.316;2023-03-16T06:22:37;0.30;;;0.30;;
65636;SDS011;52327;42.622;23.316;2023-03-16T06:25:04;0.28;;;0.28;;
65636;SDS011;52327;42.622;23.316;2023-03-16T06:27:31;0.52;;;0.35;;
65636;SDS011;52327;42.622;23.316;2023-03-16T06:29:56;0.30;;;0.30;;
65636;SDS011;52327;42.622;23.316;2023-03-16T06:32:21;0.32;;;0.32;;
65636;SDS011;52327;42.622;23.316;2023-03-16T06:34:47;0.57;;;0.57;;
65636;SDS011;52327;42.622;23.316;2023-03-16T06:37:12;1.15;;;0.63;;
65636;SDS011;52327;42.622;23.316;2023-03-16T06:39:38;0.82;;;0.40;;
65636;SDS011;52327;42.622;23.316;2023-03-16T06:42:04;0.90;;;0.45;;
65636;SDS011;52327;42.622;23.316;2023-03-16T06:44:29;0.30;;;0.30;;
65636;SDS011;52327;42.622;23.316;2023-03-16T06:46:55;0.65;;;0.65;;
65636;SDS011;52327;42.622;23.316;2023-03-16T06:49:21;0.40;;;0.40;;
65636;SDS011;52327;42.622;23.316;2023-03-16T06:51:47;1.08;;;0.50;;
65636;SDS011;52327;42.622;23.316;2023-03-16T06:54:12;0.68;;;0.55;;
65636;SDS011;52327;42.622;23.316;2023-03-16T06:56:37;0.50;;;0.50;;
65636;SDS011;52327;42.622;23.316;2023-03-16T06:59:03;0.25;;;0.20;;
65636;SDS011;52327;42.622;23.316;2023-03-16T07:01:28;0.60;;;0.60;;
65636;SDS011;52327;42.622;23.316;2023-03-16T07:03:54;0.50;;;0.50;;
65636;SDS011;52327;42.622;23.316;2023-03-16T07:06:19;0.30;;;0.30;;
65636;SDS011;52327;42.622;23.316;2023-03-16T07:08:45;0.73;;;0.63;;
65636;SDS011;52327;42.622;23.316;2023-03-16T07:11:11;0.75;;;0.75;;
65636;SDS011;52327;42.622;23.316;2023-03-16T07:13:37;0.75;;;0.75;;
65636;SDS011;52327;42.622;23.316;2023-03-16T07:16:02;0.77;;;0.50;;
65636;SDS011;52327;42.622;23.316;2023-03-16T07:18:28;0.38;;;0.38;;
65636;SDS011;52327;42.622;23.316;2023-03-16T07:20:55;0.40;;;0.40;;
65636;SDS011;52327;42.622;23.316;2023-03-16T07:23:22;0.75;;;0.60;;
65636;SDS011;52327;42.622;23.316;2023-03-16T07:25:49;0.88;;;0.85;;
65636;SDS011;52327;42.622;23.316;2023-03-16T07:28:16;0.35;;;0.35;;
65636;SDS011;52327;42.622;23.316;2023-03-16T07:30:43;0.32;;;0.30;;
65636;SDS011;52327;42.622;23.316;2023-03-16T07:33:09;3.10;;;1.20;;
65636;SDS011;52327;42.622;23.316;2023-03-16T07:35:35;0.55;;;0.50;;
65636;SDS011;52327;42.622;23.316;2023-03-16T07:38:01;1.15;;;0.45;;
65636;SDS011;52327;42.622;23.316;2023-03-16T07:40:27;0.30;;;0.30;;
65636;SDS011;52327;42.622;23.316;2023-03-16T07:42:52;3.00;;;0.85;;
65636;SDS011;52327;42.622;23.316;2023-03-16T07:45:18;2.72;;;1.00;;
65636;SDS011;52327;42.622;23.316;2023-03-16T07:47:43;1.27;;;0.73;;
65636;SDS011;52327;42.622;23.316;2023-03-16T07:50:09;0.85;;;0.73;;
65636;SDS011;52327;42.622;23.316;2023-03-16T07:52:35;0.50;;;0.43;;
65636;SDS011;52327;42.622;23.316;2023-03-16T07:55:01;2.00;;;0.90;;
65636;SDS011;52327;42.622;23.316;2023-03-16T07:57:27;0.40;;;0.40;;
65636;SDS011;52327;42.622;23.316;2023-03-16T07:59:53;0.30;;;0.25;;
65636;SDS011;52327;42.622;23.316;2023-03-16T08:02:19;0.20;;;0.20;;
65636;SDS011;52327;42.622;23.316;2023-03-16T08:04:45;1.17;;;0.55;;
65636;SDS011;52327;42.622;23.316;2023-03-16T08:07:11;0.30;;;0.30;;
65636;SDS011;52327;42.622;23.316;2023-03-16T08:09:38;0.57;;;0.55;;
65636;SDS011;52327;42.622;23.316;2023-03-16T08:12:06;0.20;;;0.20;;
65636;SDS011;52327;42.622;23.316;2023-03-16T08:14:32;0.40;;;0.40;;
65636;SDS011;52327;42.622;23.316;2023-03-16T08:16:58;0.65;;;0.65;;
65636;SDS011;52327;42.622;23.316;2023-03-16T08:19:26;0.30;;;0.30;;
65636;SDS011;52327;42.622;23.316;2023-03-16T08:21:52;0.50;;;0.50;;
65636;SDS011;52327;42.622;23.316;2023-03-16T08:24:18;0.47;;;0.45;;
65636;SDS011;52327;42.622;23.316;2023-03-16T08:26:43;1.17;;;0.85;;
65636;SDS011;52327;42.622;23.316;2023-03-16T08:29:09;0.55;;;0.55;;
65636;SDS011;52327;42.622;23.316;2023-03-16T08:31:35;1.20;;;0.90;;
65636;SDS011;52327;42.622;23.316;2023-03-16T08:34:00;1.17;;;0.55;;
65636;SDS011;52327;42.622;23.316;2023-03-16T08:36:26;0.73;;;0.60;;
65636;SDS011;52327;42.622;23.316;2023-03-16T08:38:54;1.52;;;0.93;;
65636;SDS011;52327;42.622;23.316;2023-03-16T08:41:20;0.70;;;0.52;;
65636;SDS011;52327;42.622;23.316;2023-03-16T08:43:46;0.50;;;0.50;;
65636;SDS011;52327;42.622;23.316;2023-03-16T08:46:12;0.57;;;0.55;;
65636;SDS011;52327;42.622;23.316;2023-03-16T08:48:38;0.73;;;0.65;;
65636;SDS011;52327;42.622;23.316;2023-03-16T08:51:05;0.45;;;0.40;;
65636;SDS011;52327;42.622;23.316;2023-03-16T08:53:31;1.45;;;0.80;;
65636;SDS011;52327;42.622;23.316;2023-03-16T08:56:01;1.17;;;0.63;;
65636;SDS011;52327;42.622;23.316;2023-03-16T08:58:34;0.75;;;0.65;;
65636;SDS011;52327;42.622;23.316;2023-03-16T09:01:00;1.13;;;0.90;;
65636;SDS011;52327;42.622;23.316;2023-03-16T09:03:27;0.50;;;0.50;;
65636;SDS011;52327;42.622;23.316;2023-03-16T09:05:53;1.50;;;1.05;;
65636;SDS011;52327;42.622;23.316;2023-03-16T09:08:18;0.93;;;0.68;;
65636;SDS011;52327;42.622;23.316;2023-03-16T09:10:44;1.33;;;1.23;;
65636;SDS011;52327;42.622;23.316;2023-03-16T09:13:11;1.70;;;1.40;;
65636;SDS011;52327;42.622;23.316;2023-03-16T09:15:36;3.92;;;1.13;;
65636;SDS011;52327;42.622;23.316;2023-03-16T09:18:03;1.30;;;1.10;;
65636;SDS011;52327;42.622;23.316;2023-03-16T09:20:29;0.93;;;0.65;;
65636;SDS011;52327;42.622;23.316;2023-03-16T09:22:55;0.55;;;0.50;;
65636;SDS011;52327;42.622;23.316;2023-03-16T09:25:21;1.13;;;0.90;;
65636;SDS011;52327;42.622;23.316;2023-03-16T09:27:49;4.75;;;1.73;;
65636;SDS011;52327;42.622;23.316;2023-03-16T09:30:15;5.95;;;5.22;;
65636;SDS011;52327;42.622;23.316;2023-03-16T09:32:41;5.55;;;2.58;;
65636;SDS011;52327;42.622;23.316;2023-03-16T09:35:07;1.25;;;1.17;;
65636;SDS011;52327;42.622;23.316;2023-03-16T09:37:33;3.15;;;0.93;;
65636;SDS011;52327;42.622;23.316;2023-03-16T09:39:58;3.10;;;1.30;;
65636;SDS011;52327;42.622;23.316;2023-03-16T09:42:35;1.02;;;0.95;;
65636;SDS011;52327;42.622;23.316;2023-03-16T09:47:56;1.60;;;1.17;;
65636;SDS011;52327;42.622;23.316;2023-03-16T09:50:27;2.05;;;1.63;;
65636;SDS011;52327;42.622;23.316;2023-03-16T09:55:30;0.82;;;0.82;;
65636;SDS011;52327;42.622;23.316;2023-03-16T09:58:00;1.70;;;1.35;;
65636;SDS011;52327;42.622;23.316;2023-03-16T10:00:29;3.90;;;1.77;;
65636;SDS011;52327;42.622;23.316;2023-03-16T10:05:45;2.75;;;2.53;;
65636;SDS011;52327;42.622;23.316;2023-03-16T10:13:31;1.45;;;0.98;;
65636;SDS011;52327;42.622;23.316;2023-03-16T10:15:58;1.88;;;1.10;;
65636;SDS011;52327;42.622;23.316;2023-03-16T10:18:30;0.40;;;0.40;;
65636;SDS011;52327;42.622;23.316;2023-03-16T10:21:02;1.30;;;0.98;;
65636;SDS011;52327;42.622;23.316;2023-03-16T10:23:29;1.00;;;0.88;;
65636;SDS011;52327;42.622;23.316;2023-03-16T10:25:58;4.68;;;2.35;;
65636;SDS011;52327;42.622;23.316;2023-03-16T10:28:24;0.98;;;0.60;;
65636;SDS011;52327;42.622;23.316;2023-03-16T10:30:54;0.98;;;0.50;;
65636;SDS011;52327;42.622;23.316;2023-03-16T10:33:29;1.40;;;1.10;;
65636;SDS011;52327;42.622;23.316;2023-03-16T10:44:02;2.30;;;0.88;;
65636;SDS011;52327;42.622;23.316;2023-03-16T10:46:42;1.77;;;1.60;;
65636;SDS011;52327;42.622;23.316;2023-03-16T10:51:49;0.73;;;0.73;;
65636;SDS011;52327;42.622;23.316;2023-03-16T10:56:51;1.15;;;0.93;;
65636;SDS011;52327;42.622;23.316;2023-03-16T10:59:27;3.60;;;1.13;;
65636;SDS011;52327;42.622;23.316;2023-03-16T11:02:23;0.90;;;0.88;;
65636;SDS011;52327;42.622;23.316;2023-03-16T11:04:54;11.18;;;5.85;;
65636;SDS011;52327;42.622;23.316;2023-03-16T11:07:21;1.08;;;0.98;;
65636;SDS011;52327;42.622;23.316;2023-03-16T11:09:48;2.67;;;1.52;;
65636;SDS011;52327;42.622;23.316;2023-03-16T11:12:20;1.13;;;0.90;;
65636;SDS011;52327;42.622;23.316;2023-03-16T11:14:49;1.63;;;1.15;;
65636;SDS011;52327;42.622;23.316;2023-03-16T11:17:18;0.88;;;0.77;;
65636;SDS011;52327;42.622;23.316;2023-03-16T11:19:52;2.15;;;0.57;;
65636;SDS011;52327;42.622;23.316;2023-03-16T11:22:24;0.40;;;0.40;;
65636;SDS011;52327;42.622;23.316;2023-03-16T11:24:53;1.33;;;1.10;;
65636;SDS011;52327;42.622;23.316;2023-03-16T11:27:44;0.75;;;0.60;;
65636;SDS011;52327;42.622;23.316;2023-03-16T11:30:18;1.15;;;0.95;;
65636;SDS011;52327;42.622;23.316;2023-03-16T11:32:51;4.90;;;0.95;;
65636;SDS011;52327;42.622;23.316;2023-03-16T11:38:18;1.95;;;0.65;;
65636;SDS011;52327;42.622;23.316;2023-03-16T11:43:26;1.50;;;1.02;;
65636;SDS011;52327;42.622;23.316;2023-03-16T11:46:14;2.55;;;1.48;;
65636;SDS011;52327;42.622;23.316;2023-03-16T11:48:56;3.45;;;2.20;;
65636;SDS011;52327;42.622;23.316;2023-03-16T11:51:46;8.32;;;2.53;;
65636;SDS011;52327;42.622;23.316;2023-03-16T12:10:29;2.20;;;1.48;;
65636;SDS011;52327;42.622;23.316;2023-03-16T12:16:31;5.38;;;2.33;;
65636;SDS011;52327;42.622;23.316;2023-03-16T12:18:57;2.63;;;1.45;;
65636;SDS011;52327;42.622;23.316;2023-03-16T12:26:25;3.20;;;2.40;;
65636;SDS011;52327;42.622;23.316;2023-03-16T12:28:54;2.17;;;1.30;;
65636;SDS011;52327;42.622;23.316;2023-03-16T12:34:20;2.42;;;2.00;;
65636;SDS011;52327;42.622;23.316;2023-03-16T12:37:08;10.32;;;2.00;;
65636;SDS011;52327;42.622;23.316;2023-03-16T12:50:17;2.42;;;2.00;;
65636;SDS011;52327;42.622;23.316;2023-03-16T12:52:45;2.50;;;1.75;;
65636;SDS011;52327;42.622;23.316;2023-03-16T12:55:22;2.88;;;1.10;;
65636;SDS011;52327;42.622;23.316;2023-03-16T12:58:04;2.10;;;1.48;;
65636;SDS011;52327;42.622;23.316;2023-03-16T13:00:35;2.25;;;1.40;;
65636;SDS011;52327;42.622;23.316;2023-03-16T13:03:05;3.17;;;2.20;;
65636;SDS011;52327;42.622;23.316;2023-03-16T13:05:36;1.15;;;1.02;;
65636;SDS011;52327;42.622;23.316;2023-03-16T13:08:12;1.23;;;1.13;;
65636;SDS011;52327;42.622;23.316;2023-03-16T13:10:39;3.03;;;1.80;;
65636;SDS011;52327;42.622;23.316;2023-03-16T13:13:10;2.00;;;1.55;;
65636;SDS011;52327;42.622;23.316;2023-03-16T13:15:40;1.65;;;1.23;;
65636;SDS011;52327;42.622;23.316;2023-03-16T13:20:49;4.88;;;2.63;;
65636;SDS011;52327;42.622;23.316;2023-03-16T13:26:17;1.63;;;1.52;;
65636;SDS011;52327;42.622;23.316;2023-03-16T13:28:51;2.28;;;1.83;;
65636;SDS011;52327;42.622;23.316;2023-03-16T13:31:32;4.65;;;2.78;;
65636;SDS011;52327;42.622;23.316;2023-03-16T13:34:01;5.97;;;3.40;;
65636;SDS011;52327;42.622;23.316;2023-03-16T13:36:28;4.30;;;2.08;;
65636;SDS011;52327;42.622;23.316;2023-03-16T13:39:17;1.50;;;1.08;;
65636;SDS011;52327;42.622;23.316;2023-03-16T13:44:23;1.30;;;1.20;;
65636;SDS011;52327;42.622;23.316;2023-03-16T13:46:50;4.80;;;2.38;;
65636;SDS011;52327;42.622;23.316;2023-03-16T13:49:16;3.60;;;2.08;;
65636;SDS011;52327;42.622;23.316;2023-03-16T13:51:42;2.78;;;1.48;;
65636;SDS011;52327;42.622;23.316;2023-03-16T13:54:21;4.13;;;2.65;;
65636;SDS011;52327;42.622;23.316;2023-03-16T13:56:52;3.20;;;1.77;;
65636;SDS011;52327;42.622;23.316;2023-03-16T13:59:21;5.50;;;3.60;;
65636;SDS011;52327;42.622;23.316;2023-03-16T14:01:47;2.45;;;2.13;;
65636;SDS011;52327;42.622;23.316;2023-03-16T14:04:20;3.85;;;3.20;;
65636;SDS011;52327;42.622;23.316;2023-03-16T14:06:58;7.95;;;2.58;;
65636;SDS011;52327;42.622;23.316;2023-03-16T14:09:27;3.63;;;2.55;;
65636;SDS011;52327;42.622;23.316;2023-03-16T14:11:57;2.10;;;1.58;;
65636;SDS011;52327;42.622;23.316;2023-03-16T14:15:09;4.38;;;2.75;;
65636;SDS011;52327;42.622;23.316;2023-03-16T14:17:18;3.17;;;2.13;;
65636;SDS011;52327;42.622;23.316;2023-03-16T14:19:52;3.53;;;2.97;;
65636;SDS011;52327;42.622;23.316;2023-03-16T14:22:23;3.75;;;2.47;;
65636;SDS011;52327;42.622;23.316;2023-03-16T14:24:53;2.65;;;1.52;;
65636;SDS011;52327;42.622;23.316;2023-03-16T14:32:40;4.38;;;2.33;;
65636;SDS011;52327;42.622;23.316;2023-03-16T14:35:13;4.22;;;1.95;;
65636;SDS011;52327;42.622;23.316;2023-03-16T14:37:41;6.30;;;2.40;;
65636;SDS011;52327;42.622;23.316;2023-03-16T14:40:19;2.78;;;1.48;;
65636;SDS011;52327;42.622;23.316;2023-03-16T14:42:51;3.53;;;2.50;;
65636;SDS011;52327;42.622;23.316;2023-03-16T14:45:19;9.95;;;2.70;;
65636;SDS011;52327;42.622;23.316;2023-03-16T14:47:45;4.57;;;2.33;;
65636;SDS011;52327;42.622;23.316;2023-03-16T14:50:17;8.25;;;4.75;;
65636;SDS011;52327;42.622;23.316;2023-03-16T14:52:49;2.78;;;2.35;;
65636;SDS011;52327;42.622;23.316;2023-03-16T14:55:17;3.05;;;2.03;;
65636;SDS011;52327;42.622;23.316;2023-03-16T14:57:43;11.90;;;6.15;;
65636;SDS011;52327;42.622;23.316;2023-03-16T15:00:14;10.38;;;4.10;;
65636;SDS011;52327;42.622;23.316;2023-03-16T15:02:41;10.20;;;5.05;;
65636;SDS011;52327;42.622;23.316;2023-03-16T15:05:09;5.80;;;3.35;;
65636;SDS011;52327;42.622;23.316;2023-03-16T15:07:43;3.17;;;2.03;;
65636;SDS011;52327;42.622;23.316;2023-03-16T15:12:39;8.80;;;2.53;;
65636;SDS011;52327;42.622;23.316;2023-03-16T15:15:13;4.53;;;3.05;;
65636;SDS011;52327;42.622;23.316;2023-03-16T15:17:41;5.40;;;2.78;;
65636;SDS011;52327;42.622;23.316;2023-03-16T15:20:14;4.47;;;3.03;;
65636;SDS011;52327;42.622;23.316;2023-03-16T15:22:42;6.85;;;2.78;;
65636;SDS011;52327;42.622;23.316;2023-03-16T15:25:30;11.77;;;3.38;;
65636;SDS011;52327;42.622;23.316;2023-03-16T15:28:00;6.78;;;4.82;;
65636;SDS011;52327;42.622;23.316;2023-03-16T15:30:48;5.55;;;2.55;;
65636;SDS011;52327;42.622;23.316;2023-03-16T15:33:16;10.98;;;2.50;;
65636;SDS011;52327;42.622;23.316;2023-03-16T15:35:41;4.00;;;2.00;;
65636;SDS011;52327;42.622;23.316;2023-03-16T15:38:15;5.20;;;2.80;;
65636;SDS011;52327;42.622;23.316;2023-03-16T15:40:45;4.55;;;2.08;;
65636;SDS011;52327;42.622;23.316;2023-03-16T15:43:12;5.00;;;2.90;;
65636;SDS011;52327;42.622;23.316;2023-03-16T15:45:40;2.88;;;2.50;;
65636;SDS011;52327;42.622;23.316;2023-03-16T15:48:07;3.13;;;2.40;;
65636;SDS011;52327;42.622;23.316;2023-03-16T15:50:33;7.15;;;3.95;;
65636;SDS011;52327;42.622;23.316;2023-03-16T15:53:08;2.58;;;2.00;;
65636;SDS011;52327;42.622;23.316;2023-03-16T15:55:40;4.05;;;2.22;;
65636;SDS011;52327;42.622;23.316;2023-03-16T15:58:18;1.98;;;1.50;;
65636;SDS011;52327;42.622;23.316;2023-03-16T16:00:48;4.20;;;2.15;;
65636;SDS011;52327;42.622;23.316;2023-03-16T16:03:13;3.13;;;2.88;;
65636;SDS011;52327;42.622;23.316;2023-03-16T16:05:39;3.83;;;2.47;;
65636;SDS011;52327;42.622;23.316;2023-03-16T16:08:04;3.67;;;1.85;;
65636;SDS011;52327;42.622;23.316;2023-03-16T16:10:30;2.65;;;1.83;;
65636;SDS011;52327;42.622;23.316;2023-03-16T16:12:57;2.45;;;2.22;;
65636;SDS011;52327;42.622;23.316;2023-03-16T16:15:30;1.92;;;1.80;;